sensor_id;sensor_type;location;lat;lon;timestamp;pressure;altitude;pressure_sealevel;temperature;humidity
8360;BME280;4217;48.762;11.428;2022-12-07T00:09:18;97494.72;;;7.67;60.12
8360;BME280;4217;48.762;11.428;2022-12-07T00:19:20;97494.19;;;7.88;59.13
8360;BME280;4217;48.762;11.428;2022-12-07T00:29:22;97491.00;;;7.74;59.96
8360;BME280;4217;48.762;11.428;2022-12-07T00:39:24;97487.16;;;7.58;60.09
8360;BME280;4217;48.762;11.428;2022-12-07T00:49:26;97493.28;;;7.52;60.38
8360;BME280;4217;48.762;11.428;2022-12-07T00:59:27;97495.53;;;7.49;60.75
8360;BME280;4217;48.762;11.428;2022-12-07T01:09:28;97498.75;;;7.51;60.67
8360;BME280;4217;48.762;11.428;2022-12-07T01:19:30;97496.75;;;7.35;61.35
8360;BME280;4217;48.762;11.428;2022-12-07T01:29:31;97513.31;;;7.47;60.95
8360;BME280;4217;48.762;11.428;2022-12-07T01:39:33;97497.72;;;7.52;60.87
8360;BME280;4217;48.762;11.428;2022-12-07T01:49:44;97493.91;;;7.66;60.79
8360;BME280;4217;48.762;11.428;2022-12-07T01:59:49;97501.94;;;7.53;61.00
8360;BME280;4217;48.762;11.428;2022-12-07T02:09:52;97501.03;;;7.47;61.35
8360;BME280;4217;48.762;11.428;2022-12-07T02:30:42;97490.81;;;7.28;62.01
8360;BME280;4217;48.762;11.428;2022-12-07T02:41:06;97496.25;;;7.26;62.28
8360;BME280;4217;48.762;11.428;2022-12-07T02:51:10;97479.22;;;7.35;62.05
8360;BME280;4217;48.762;11.428;2022-12-07T03:11:50;97461.44;;;7.26;62.48
8360;BME280;4217;48.762;11.428;2022-12-07T03:21:57;97467.28;;;7.28;62.18
8360;BME280;4217;48.762;11.428;2022-12-07T03:32:25;97459.50;;;7.21;62.48
8360;BME280;4217;48.762;11.428;2022-12-07T03:42:29;97474.22;;;7.15;62.83
8360;BME280;4217;48.762;11.428;2022-12-07T03:52:39;97463.34;;;7.48;61.55
8360;BME280;4217;48.762;11.428;2022-12-07T04:02:42;97466.97;;;7.17;62.57
8360;BME280;4217;48.762;11.428;2022-12-07T04:12:44;97465.69;;;7.08;62.48
8360;BME280;4217;48.762;11.428;2022-12-07T04:22:46;97463.94;;;6.84;62.71
8360;BME280;4217;48.762;11.428;2022-12-07T04:32:47;97469.25;;;6.59;62.82
8360;BME280;4217;48.762;11.428;2022-12-07T04:42:49;97465.69;;;6.54;62.87
8360;BME280;4217;48.762;11.428;2022-12-07T04:52:50;97463.75;;;6.24;63.90
8360;BME280;4217;48.762;11.428;2022-12-07T05:02:52;97451.47;;;6.07;64.35
8360;BME280;4217;48.762;11.428;2022-12-07T05:12:53;97450.63;;;5.88;63.82
8360;BME280;4217;48.762;11.428;2022-12-07T05:22:55;97452.84;;;5.53;64.01
8360;BME280;4217;48.762;11.428;2022-12-07T05:32:57;97429.88;;;5.37;64.51
8360;BME280;4217;48.762;11.428;2022-12-07T05:42:58;97427.56;;;5.22;64.36
8360;BME280;4217;48.762;11.428;2022-12-07T05:53:05;97438.41;;;5.12;64.46
8360;BME280;4217;48.762;11.428;2022-12-07T06:03:06;97435.13;;;4.92;65.43
8360;BME280;4217;48.762;11.428;2022-12-07T06:13:08;97437.50;;;4.94;65.36
8360;BME280;4217;48.762;11.428;2022-12-07T06:23:10;97438.56;;;4.79;65.59
8360;BME280;4217;48.762;11.428;2022-12-07T06:33:12;97440.59;;;4.77;65.82
8360;BME280;4217;48.762;11.428;2022-12-07T06:43:14;97455.22;;;4.78;65.78
8360;BME280;4217;48.762;11.428;2022-12-07T06:53:16;97455.44;;;4.70;66.00
8360;BME280;4217;48.762;11.428;2022-12-07T07:03:18;97477.06;;;4.77;66.41
8360;BME280;4217;48.762;11.428;2022-12-07T07:13:19;97485.19;;;5.01;66.19
8360;BME280;4217;48.762;11.428;2022-12-07T07:23:21;97502.41;;;5.02;67.17
8360;BME280;4217;48.762;11.428;2022-12-07T07:33:23;97504.63;;;5.49;66.84
8360;BME280;4217;48.762;11.428;2022-12-07T07:43:24;97495.75;;;6.20;65.84
8360;BME280;4217;48.762;11.428;2022-12-07T07:53:27;97501.06;;;6.93;64.59
8360;BME280;4217;48.762;11.428;2022-12-07T08:03:28;97484.41;;;7.24;63.60
8360;BME280;4217;48.762;11.428;2022-12-07T08:13:30;97512.28;;;8.43;61.41
8360;BME280;4217;48.762;11.428;2022-12-07T08:23:33;97515.50;;;8.56;58.99
8360;BME280;4217;48.762;11.428;2022-12-07T08:33:40;97516.75;;;8.77;57.74
8360;BME280;4217;48.762;11.428;2022-12-07T08:43:42;97513.09;;;8.78;57.89
8360;BME280;4217;48.762;11.428;2022-12-07T08:53:44;97511.06;;;8.57;57.62
8360;BME280;4217;48.762;11.428;2022-12-07T09:03:46;97515.72;;;8.43;57.78
8360;BME280;4217;48.762;11.428;2022-12-07T09:13:47;97523.13;;;8.58;57.50
8360;BME280;4217;48.762;11.428;2022-12-07T09:23:49;97511.47;;;9.00;56.36
8360;BME280;4217;48.762;11.428;2022-12-07T09:33:58;97507.34;;;9.16;56.12
8360;BME280;4217;48.762;11.428;2022-12-07T09:44:05;97509.00;;;9.62;54.73
8360;BME280;4217;48.762;11.428;2022-12-07T09:54:09;97489.38;;;9.81;54.12
8360;BME280;4217;48.762;11.428;2022-12-07T10:04:22;97482.25;;;9.93;53.61
8360;BME280;4217;48.762;11.428;2022-12-07T10:14:27;97471.38;;;10.18;52.17
8360;BME280;4217;48.762;11.428;2022-12-07T10:24:49;97465.94;;;10.25;51.67
8360;BME280;4217;48.762;11.428;2022-12-07T10:35:18;97455.31;;;9.86;52.22
8360;BME280;4217;48.762;11.428;2022-12-07T10:45:19;97450.50;;;10.28;51.35
8360;BME280;4217;48.762;11.428;2022-12-07T10:55:41;97445.78;;;9.97;50.94
8360;BME280;4217;48.762;11.428;2022-12-07T11:36:56;97411.16;;;10.00;50.20
8360;BME280;4217;48.762;11.428;2022-12-07T11:57:14;97395.94;;;10.02;49.70
8360;BME280;4217;48.762;11.428;2022-12-07T12:07:26;97387.19;;;9.80;50.03
8360;BME280;4217;48.762;11.428;2022-12-07T12:18:17;97385.75;;;9.72;50.17
8360;BME280;4217;48.762;11.428;2022-12-07T12:28:29;97373.81;;;9.98;49.45
8360;BME280;4217;48.762;11.428;2022-12-07T12:38:33;97378.59;;;10.18;49.57
8360;BME280;4217;48.762;11.428;2022-12-07T12:48:38;97371.84;;;10.65;48.66
8360;BME280;4217;48.762;11.428;2022-12-07T12:58:41;97360.50;;;10.60;49.21
8360;BME280;4217;48.762;11.428;2022-12-07T13:08:45;97348.50;;;10.47;49.26
8360;BME280;4217;48.762;11.428;2022-12-07T13:18:47;97338.56;;;10.49;49.32
8360;BME280;4217;48.762;11.428;2022-12-07T13:28:51;97329.91;;;10.54;49.54
8360;BME280;4217;48.762;11.428;2022-12-07T13:39:00;97332.16;;;10.45;49.55
8360;BME280;4217;48.762;11.428;2022-12-07T13:49:26;97329.00;;;10.21;50.09
8360;BME280;4217;48.762;11.428;2022-12-07T13:59:28;97329.72;;;10.00;50.63
8360;BME280;4217;48.762;11.428;2022-12-07T14:09:31;97329.88;;;9.93;51.10
8360;BME280;4217;48.762;11.428;2022-12-07T14:19:51;97335.00;;;9.83;50.80
8360;BME280;4217;48.762;11.428;2022-12-07T14:29:53;97339.22;;;9.51;51.42
8360;BME280;4217;48.762;11.428;2022-12-07T14:39:56;97338.63;;;9.32;51.78
8360;BME280;4217;48.762;11.428;2022-12-07T14:49:58;97325.94;;;9.24;52.00
8360;BME280;4217;48.762;11.428;2022-12-07T15:00:08;97327.03;;;9.11;52.53
8360;BME280;4217;48.762;11.428;2022-12-07T15:10:20;97326.94;;;8.78;53.25
8360;BME280;4217;48.762;11.428;2022-12-07T15:20:24;97319.41;;;8.82;53.40
8360;BME280;4217;48.762;11.428;2022-12-07T15:30:26;97317.47;;;8.77;53.97
8360;BME280;4217;48.762;11.428;2022-12-07T15:40:31;97311.94;;;8.62;54.55
8360;BME280;4217;48.762;11.428;2022-12-07T15:50:32;97309.81;;;8.59;54.79
8360;BME280;4217;48.762;11.428;2022-12-07T16:00:34;97308.13;;;8.53;55.34
8360;BME280;4217;48.762;11.428;2022-12-07T16:10:36;97303.41;;;8.55;55.47
8360;BME280;4217;48.762;11.428;2022-12-07T16:20:37;97303.56;;;8.48;55.96
8360;BME280;4217;48.762;11.428;2022-12-07T16:30:39;97299.59;;;8.46;56.13
8360;BME280;4217;48.762;11.428;2022-12-07T16:40:40;97298.34;;;8.36;56.50
8360;BME280;4217;48.762;11.428;2022-12-07T16:50:43;97300.31;;;8.18;57.09
8360;BME280;4217;48.762;11.428;2022-12-07T17:00:51;97293.69;;;8.15;57.43
8360;BME280;4217;48.762;11.428;2022-12-07T17:10:52;97291.78;;;8.11;57.47
8360;BME280;4217;48.762;11.428;2022-12-07T17:20:54;97287.53;;;8.21;57.60
8360;BME280;4217;48.762;11.428;2022-12-07T17:31:04;97280.59;;;8.15;57.47
8360;BME280;4217;48.762;11.428;2022-12-07T17:41:11;97273.53;;;8.16;57.80
8360;BME280;4217;48.762;11.428;2022-12-07T17:51:13;97270.69;;;8.17;57.64
8360;BME280;4217;48.762;11.428;2022-12-07T18:01:34;97262.66;;;8.07;57.77
8360;BME280;4217;48.762;11.428;2022-12-07T18:11:36;97264.47;;;7.95;57.86
8360;BME280;4217;48.762;11.428;2022-12-07T18:21:38;97274.13;;;7.94;57.98
8360;BME280;4217;48.762;11.428;2022-12-07T18:31:40;97278.09;;;8.09;57.84
8360;BME280;4217;48.762;11.428;2022-12-07T18:41:42;97274.34;;;8.16;57.66
8360;BME280;4217;48.762;11.428;2022-12-07T18:51:43;97277.53;;;8.18;57.80
8360;BME280;4217;48.762;11.428;2022-12-07T19:01:51;97277.44;;;8.13;57.90
8360;BME280;4217;48.762;11.428;2022-12-07T19:11:53;97278.47;;;8.12;58.01
8360;BME280;4217;48.762;11.428;2022-12-07T19:21:56;97272.06;;;8.08;58.24
8360;BME280;4217;48.762;11.428;2022-12-07T19:31:59;97267.53;;;8.04;58.38
8360;BME280;4217;48.762;11.428;2022-12-07T19:42:02;97264.59;;;8.00;58.29
8360;BME280;4217;48.762;11.428;2022-12-07T19:52:06;97255.94;;;7.99;58.61
8360;BME280;4217;48.762;11.428;2022-12-07T20:02:11;97248.31;;;7.98;58.62
8360;BME280;4217;48.762;11.428;2022-12-07T20:12:13;97250.31;;;8.08;58.16
8360;BME280;4217;48.762;11.428;2022-12-07T20:22:33;97236.38;;;7.90;58.33
8360;BME280;4217;48.762;11.428;2022-12-07T20:32:35;97236.75;;;7.71;59.18
8360;BME280;4217;48.762;11.428;2022-12-07T20:42:36;97235.81;;;7.77;58.71
8360;BME280;4217;48.762;11.428;2022-12-07T20:52:38;97230.47;;;7.83;58.66
8360;BME280;4217;48.762;11.428;2022-12-07T21:02:40;97220.22;;;7.82;58.62
8360;BME280;4217;48.762;11.428;2022-12-07T21:12:41;97212.06;;;7.67;58.75
8360;BME280;4217;48.762;11.428;2022-12-07T21:22:43;97209.31;;;7.61;58.97
8360;BME280;4217;48.762;11.428;2022-12-07T21:32:45;97209.56;;;7.60;59.22
8360;BME280;4217;48.762;11.428;2022-12-07T21:42:46;97197.94;;;7.56;59.20
8360;BME280;4217;48.762;11.428;2022-12-07T21:52:49;97196.34;;;7.55;59.45
8360;BME280;4217;48.762;11.428;2022-12-07T22:02:50;97192.41;;;7.41;59.98
8360;BME280;4217;48.762;11.428;2022-12-07T22:12:56;97187.63;;;7.26;60.04
8360;BME280;4217;48.762;11.428;2022-12-07T22:22:58;97188.75;;;7.07;60.09
8360;BME280;4217;48.762;11.428;2022-12-07T22:32:59;97179.53;;;6.81;60.62
8360;BME280;4217;48.762;11.428;2022-12-07T22:43:01;97171.00;;;7.09;60.69
8360;BME280;4217;48.762;11.428;2022-12-07T22:53:02;97168.28;;;7.15;60.66
8360;BME280;4217;48.762;11.428;2022-12-07T23:03:05;97153.97;;;7.18;60.35
8360;BME280;4217;48.762;11.428;2022-12-07T23:13:09;97158.63;;;7.16;60.68
8360;BME280;4217;48.762;11.428;2022-12-07T23:23:29;97152.47;;;7.22;60.43
8360;BME280;4217;48.762;11.428;2022-12-07T23:33:31;97136.69;;;6.94;60.46
8360;BME280;4217;48.762;11.428;2022-12-07T23:43:35;97135.97;;;6.63;60.56
8360;BME280;4217;48.762;11.428;2022-12-07T23:53:39;97135.41;;;6.08;60.95
